createdAt,value
2022-10-23T00:00:24.450Z,71.20
2022-10-23T00:03:13.447Z,71.37
2022-10-23T00:05:59.497Z,71.21
2022-10-23T00:08:45.066Z,71.47
2022-10-23T00:11:34.512Z,71.68
2022-10-23T00:14:22.602Z,70.96
2022-10-23T00:17:08.471Z,71.28
2022-10-23T00:19:54.038Z,71.36
2022-10-23T00:22:39.657Z,70.92
2022-10-23T00:25:27.011Z,71.22
2022-10-23T00:28:12.555Z,71.37
2022-10-23T00:30:57.886Z,71.46
2022-10-23T00:33:43.254Z,70.90
2022-10-23T00:36:32.410Z,71.65
2022-10-23T00:39:17.913Z,71.66
2022-10-23T00:42:03.365Z,71.02
2022-10-23T00:44:49.312Z,71.06
2022-10-23T00:47:37.901Z,71.01
2022-10-23T00:50:24.489Z,71.50
2022-10-23T00:53:14.272Z,71.25
2022-10-23T00:56:02.898Z,70.81
2022-10-23T00:58:48.634Z,71.43
2022-10-23T01:01:37.097Z,71.23
2022-10-23T01:04:24.521Z,71.00
2022-10-23T01:07:31.871Z,71.12
2022-10-23T01:10:23.173Z,70.64
2022-10-23T01:13:19.018Z,70.77
2022-10-23T01:16:23.222Z,70.63
2022-10-23T01:19:22.326Z,70.65
2022-10-23T01:22:18.006Z,70.68
2022-10-23T01:25:16.659Z,70.78
2022-10-23T01:28:06.236Z,70.57
2022-10-23T01:30:52.576Z,70.77
2022-10-23T01:33:51.650Z,70.90
2022-10-23T01:36:46.262Z,70.29
2022-10-23T01:39:40.662Z,70.82
2022-10-23T01:42:30.578Z,70.80
2022-10-23T01:45:28.172Z,71.08
2022-10-23T01:48:15.741Z,70.95
2022-10-23T01:51:03.458Z,70.86
2022-10-23T01:53:53.226Z,71.15
2022-10-23T01:56:44.553Z,71.36
2022-10-23T01:59:37.662Z,71.35
2022-10-23T02:02:25.983Z,71.29
2022-10-23T02:05:16.405Z,71.30
2022-10-23T02:08:02.801Z,71.82
2022-10-23T02:10:59.790Z,71.75
2022-10-23T02:13:51.807Z,71.86
2022-10-23T02:17:06.824Z,72.20
2022-10-23T02:19:57.063Z,71.95
2022-10-23T02:22:49.284Z,71.62
2022-10-23T02:25:39.480Z,71.86
2022-10-23T02:28:30.019Z,72.09
2022-10-23T02:31:19.268Z,71.84
2022-10-23T02:34:06.023Z,72.06
2022-10-23T02:36:51.518Z,72.08
2022-10-23T02:39:42.963Z,72.17
2022-10-23T02:42:39.501Z,72.55
2022-10-23T02:45:38.407Z,72.92
2022-10-23T02:48:37.517Z,72.78
2022-10-23T02:51:55.322Z,73.14
2022-10-23T02:54:56.008Z,72.45
2022-10-23T02:57:50.122Z,72.96
2022-10-23T03:00:40.991Z,72.86
2022-10-23T03:03:42.126Z,73.24
2022-10-23T03:06:28.224Z,72.78
2022-10-23T03:09:23.054Z,73.12
2022-10-23T03:12:08.361Z,72.66
2022-10-23T03:14:55.132Z,73.40
2022-10-23T03:17:40.553Z,73.40
2022-10-23T03:20:26.837Z,73.45
2022-10-23T03:23:12.551Z,73.54
2022-10-23T03:25:58.130Z,73.48
2022-10-23T03:28:52.553Z,73.59
2022-10-23T03:31:39.500Z,73.73
2022-10-23T03:34:24.939Z,73.64
2022-10-23T03:37:11.858Z,73.68
2022-10-23T03:39:57.621Z,73.78
2022-10-23T03:42:43.938Z,73.95
2022-10-23T03:45:33.046Z,73.92
2022-10-23T03:48:18.481Z,73.89
2022-10-23T03:51:03.827Z,74.08
2022-10-23T03:53:49.207Z,74.16
2022-10-23T03:56:34.740Z,74.15
2022-10-23T03:59:20.128Z,74.53
2022-10-23T04:02:05.781Z,74.02
2022-10-23T04:04:51.333Z,74.38
2022-10-23T04:07:38.794Z,74.04
2022-10-23T04:10:25.367Z,74.13
2022-10-23T04:13:11.699Z,74.59
2022-10-23T04:15:57.204Z,74.76
2022-10-23T04:18:42.778Z,74.39
2022-10-23T04:21:30.229Z,74.68
2022-10-23T04:24:15.814Z,74.52
2022-10-23T04:27:01.323Z,75.00
2022-10-23T04:29:48.451Z,74.75
2022-10-23T04:32:33.821Z,74.50
2022-10-23T04:35:19.305Z,74.82
2022-10-23T04:38:05.537Z,74.71
2022-10-23T04:40:51.105Z,74.86
2022-10-23T04:43:40.377Z,75.02
2022-10-23T04:46:26.249Z,74.77
2022-10-23T04:49:11.954Z,74.80
2022-10-23T04:52:06.735Z,74.76
2022-10-23T04:55:28.207Z,74.82
2022-10-23T04:58:44.617Z,74.78
2022-10-23T05:01:30.958Z,74.96
2022-10-23T05:04:17.202Z,74.70
2022-10-23T05:10:17.669Z,74.96
2022-10-23T05:13:10.607Z,74.45
2022-10-23T05:15:56.154Z,74.60
2022-10-23T05:18:56.979Z,74.70
2022-10-23T05:21:47.888Z,74.51
2022-10-23T05:24:33.400Z,73.98
2022-10-23T05:27:20.896Z,74.00
2022-10-23T05:30:06.356Z,74.02
2022-10-23T05:32:56.070Z,73.96
2022-10-23T05:35:44.546Z,73.93
2022-10-23T05:38:33.319Z,73.54
2022-10-23T05:41:23.747Z,73.64
2022-10-23T05:44:09.174Z,73.58
2022-10-23T05:47:20.928Z,73.09
2022-10-23T05:50:27.534Z,73.14
2022-10-23T05:53:32.855Z,73.12
2022-10-23T05:56:29.405Z,72.49
2022-10-23T05:59:23.275Z,72.83
2022-10-23T06:02:09.248Z,72.89
2022-10-23T06:05:06.732Z,72.49
2022-10-23T06:08:10.758Z,72.48
2022-10-23T06:10:56.848Z,72.48
2022-10-23T06:13:42.533Z,72.29
2022-10-23T06:16:32.166Z,72.14
2022-10-23T06:19:17.897Z,71.94
2022-10-23T06:22:04.033Z,72.11
2022-10-23T06:25:03.212Z,71.68
2022-10-23T06:27:49.113Z,71.16
2022-10-23T06:33:24.029Z,71.15
2022-10-23T06:36:10.028Z,71.04
2022-10-23T06:39:01.557Z,70.62
2022-10-23T06:42:06.926Z,70.38
2022-10-23T06:45:16.337Z,70.14
2022-10-23T06:48:37.710Z,70.48
2022-10-23T06:51:32.180Z,70.44
2022-10-23T06:54:17.740Z,69.96
2022-10-23T06:57:09.752Z,70.09
2022-10-23T07:00:02.949Z,69.79
2022-10-23T07:02:49.525Z,69.72
2022-10-23T07:05:35.647Z,69.63
2022-10-23T07:08:24.024Z,69.40
2022-10-23T07:11:11.813Z,69.63
2022-10-23T07:13:58.456Z,69.56
2022-10-23T07:16:43.893Z,69.30
2022-10-23T07:19:29.663Z,69.28
2022-10-23T07:22:16.593Z,69.35
2022-10-23T07:25:34.633Z,69.32
2022-10-23T07:28:20.097Z,69.03
2022-10-23T07:31:17.993Z,68.45
2022-10-23T07:34:22.170Z,68.96
2022-10-23T07:37:20.028Z,69.20
2022-10-23T07:40:05.680Z,68.73
2022-10-23T07:42:55.598Z,69.06
2022-10-23T07:45:42.704Z,68.58
2022-10-23T07:48:37.075Z,68.82
2022-10-23T07:51:29.664Z,68.29
2022-10-23T07:54:20.227Z,68.33
2022-10-23T07:57:36.148Z,68.17
2022-10-23T08:00:49.827Z,67.50
2022-10-23T08:03:50.010Z,68.15
2022-10-23T08:06:36.049Z,68.26
2022-10-23T08:09:22.232Z,68.42
2022-10-23T08:12:07.666Z,68.17
2022-10-23T08:15:11.738Z,68.11
2022-10-23T08:18:09.513Z,68.29
2022-10-23T08:21:04.550Z,67.73
2022-10-23T08:23:51.046Z,68.20
2022-10-23T08:26:37.075Z,68.25
2022-10-23T08:29:27.530Z,67.85
2022-10-23T08:32:13.776Z,68.56
2022-10-23T08:35:31.671Z,68.71
2022-10-23T08:38:17.474Z,68.64
2022-10-23T08:41:06.396Z,68.66
2022-10-23T08:44:19.295Z,68.75
2022-10-23T08:47:28.859Z,68.97
2022-10-23T08:50:45.232Z,68.56
2022-10-23T08:53:50.969Z,68.76
2022-10-23T08:56:44.612Z,68.77
2022-10-23T08:59:34.301Z,68.73
2022-10-23T09:02:34.398Z,68.61
2022-10-23T09:05:19.949Z,68.54
2022-10-23T09:08:14.526Z,67.90
2022-10-23T09:11:03.153Z,68.17
2022-10-23T09:14:03.498Z,68.08
2022-10-23T09:17:02.158Z,68.34
2022-10-23T09:19:48.654Z,68.51
2022-10-23T09:22:34.023Z,68.17
2022-10-23T09:25:19.777Z,68.04
2022-10-23T09:28:11.742Z,68.17
2022-10-23T09:31:00.476Z,67.94
2022-10-23T09:33:47.302Z,67.99
2022-10-23T09:36:43.903Z,67.75
2022-10-23T09:39:44.807Z,67.91
2022-10-23T09:42:45.541Z,67.60
2022-10-23T09:45:57.236Z,68.08
2022-10-23T09:48:43.841Z,68.59
2022-10-23T09:51:38.418Z,68.36
2022-10-23T09:54:24.071Z,68.20
2022-10-23T09:57:13.026Z,68.44
2022-10-23T10:00:00.646Z,68.60
2022-10-23T10:02:52.284Z,68.91
2022-10-23T10:05:57.678Z,69.15
2022-10-23T10:08:51.106Z,69.19
2022-10-23T10:11:56.046Z,69.91
2022-10-23T10:15:02.800Z,69.56
2022-10-23T10:18:20.003Z,69.93
2022-10-23T10:21:24.226Z,69.56
2022-10-23T10:24:43.024Z,69.54
2022-10-23T10:27:43.436Z,69.65
2022-10-23T10:30:39.717Z,70.05
2022-10-23T10:33:37.094Z,69.78
2022-10-23T10:36:49.042Z,69.89
2022-10-23T10:40:13.588Z,70.31
2022-10-23T10:43:10.798Z,70.04
2022-10-23T10:49:31.149Z,70.10
2022-10-23T10:53:27.502Z,70.64
2022-10-23T10:56:16.131Z,70.05
2022-10-23T10:59:19.615Z,70.64
2022-10-23T11:02:42.317Z,71.09
2022-10-23T11:05:38.082Z,70.73
2022-10-23T11:08:44.541Z,70.99
2022-10-23T11:12:00.857Z,70.65
2022-10-23T11:14:49.255Z,70.36
2022-10-23T11:17:54.391Z,70.97
2022-10-23T11:20:48.595Z,70.85
2022-10-23T11:23:58.835Z,71.22
2022-10-23T11:26:58.076Z,70.95
2022-10-23T11:30:11.386Z,71.14
2022-10-23T11:33:06.633Z,70.58
2022-10-23T11:36:03.259Z,70.97
2022-10-23T11:39:02.568Z,71.25
2022-10-23T11:41:49.598Z,70.79
2022-10-23T11:44:45.912Z,71.07
2022-10-23T11:47:58.555Z,71.16
2022-10-23T11:50:48.456Z,71.03
2022-10-23T11:53:52.244Z,71.47
2022-10-23T11:56:37.405Z,71.58
2022-10-23T11:59:49.215Z,72.10
2022-10-23T12:02:54.547Z,71.76
2022-10-23T12:05:58.153Z,72.22
2022-10-23T12:08:47.002Z,71.96
2022-10-23T12:11:44.970Z,72.06
2022-10-23T12:14:56.472Z,72.18
2022-10-23T12:17:42.090Z,71.97
2022-10-23T12:20:41.486Z,72.89
2022-10-23T12:23:35.715Z,72.50
2022-10-23T12:26:21.119Z,72.79
2022-10-23T12:29:38.525Z,72.53
2022-10-23T12:32:39.361Z,72.04
2022-10-23T12:35:46.205Z,73.17
2022-10-23T12:38:40.321Z,73.12
2022-10-23T12:41:41.485Z,72.94
2022-10-23T12:44:31.164Z,73.27
2022-10-23T12:47:20.678Z,72.88
2022-10-23T12:50:09.858Z,73.32
2022-10-23T12:52:55.369Z,73.09
2022-10-23T12:55:42.720Z,73.23
2022-10-23T12:58:46.542Z,73.56
2022-10-23T13:01:52.408Z,73.80
2022-10-23T13:04:47.999Z,73.36
2022-10-23T13:07:33.959Z,73.22
2022-10-23T13:10:24.625Z,73.90
2022-10-23T13:13:21.504Z,73.73
2022-10-23T13:16:07.210Z,73.50
2022-10-23T13:19:00.318Z,73.92
2022-10-23T13:21:49.664Z,73.60
2022-10-23T13:24:39.225Z,74.05
2022-10-23T13:27:44.449Z,74.13
2022-10-23T13:30:51.235Z,74.29
2022-10-23T13:33:51.955Z,74.58
2022-10-23T13:36:37.561Z,73.59
2022-10-23T13:39:30.071Z,73.69
2022-10-23T13:42:20.198Z,73.71
2022-10-23T13:45:05.829Z,73.71
2022-10-23T13:47:51.424Z,73.58
2022-10-23T13:50:37.860Z,73.95
2022-10-23T13:53:23.236Z,74.28
2022-10-23T13:56:10.171Z,74.02
2022-10-23T13:58:55.622Z,74.25
2022-10-23T14:01:46.617Z,74.44
2022-10-23T14:04:33.598Z,74.42
2022-10-23T14:07:18.985Z,73.99
2022-10-23T14:10:04.384Z,74.44
2022-10-23T14:12:50.360Z,74.10
2022-10-23T14:15:35.733Z,74.53
2022-10-23T14:18:22.083Z,74.41
2022-10-23T14:21:07.931Z,74.89
2022-10-23T14:23:53.277Z,74.57
2022-10-23T14:26:42.106Z,74.83
2022-10-23T14:29:28.447Z,75.20
2022-10-23T14:32:13.935Z,74.93
2022-10-23T14:35:01.992Z,75.40
2022-10-23T14:37:53.327Z,75.34
2022-10-23T14:40:38.658Z,74.92
2022-10-23T14:43:25.034Z,75.17
2022-10-23T14:46:10.705Z,75.54
2022-10-23T14:49:00.001Z,75.33
2022-10-23T14:51:48.706Z,75.66
2022-10-23T14:54:34.965Z,75.25
2022-10-23T14:57:21.340Z,75.58
2022-10-23T15:00:07.874Z,75.67
2022-10-23T15:02:54.186Z,75.35
2022-10-23T15:05:39.526Z,75.53
2022-10-23T15:08:24.917Z,75.88
2022-10-23T15:11:12.795Z,75.52
2022-10-23T15:14:01.866Z,76.10
2022-10-23T15:16:47.358Z,75.75
2022-10-23T15:19:33.703Z,76.33
2022-10-23T15:22:19.557Z,76.40
2022-10-23T15:25:05.449Z,76.03
2022-10-23T15:27:51.455Z,76.26
2022-10-23T15:30:39.263Z,76.38
2022-10-23T15:33:24.561Z,76.29
2022-10-23T15:36:12.507Z,76.50
2022-10-23T15:38:58.200Z,76.27
2022-10-23T15:41:49.713Z,76.58
2022-10-23T15:44:37.290Z,76.44
2022-10-23T15:47:23.567Z,76.08
2022-10-23T15:50:08.941Z,76.36
2022-10-23T15:52:55.653Z,76.16
2022-10-23T15:55:41.556Z,76.55
2022-10-23T15:58:27.014Z,76.61
2022-10-23T16:01:13.121Z,76.40
2022-10-23T16:03:58.909Z,76.77
2022-10-23T16:06:44.215Z,76.41
2022-10-23T16:09:30.161Z,76.85
2022-10-23T16:12:15.652Z,76.90
2022-10-23T16:15:01.151Z,76.93
2022-10-23T16:17:48.479Z,76.90
2022-10-23T16:20:34.436Z,76.48
2022-10-23T16:23:21.051Z,76.97
2022-10-23T16:26:06.712Z,76.91
2022-10-23T16:28:53.249Z,76.62
2022-10-23T16:31:39.885Z,76.41
2022-10-23T16:34:25.835Z,76.61
2022-10-23T16:37:11.237Z,76.90
2022-10-23T16:40:12.959Z,76.66
2022-10-23T16:43:17.289Z,76.87
2022-10-23T16:46:41.568Z,76.86
2022-10-23T16:49:28.178Z,76.65
2022-10-23T16:52:13.596Z,76.69
2022-10-23T16:55:02.183Z,76.80
2022-10-23T16:57:48.719Z,77.01
2022-10-23T17:00:34.715Z,76.98
2022-10-23T17:03:23.767Z,76.75
2022-10-23T17:06:11.239Z,76.90
2022-10-23T17:08:58.076Z,77.03
2022-10-23T17:11:43.535Z,77.09
2022-10-23T17:14:38.638Z,77.46
2022-10-23T17:17:24.962Z,77.32
2022-10-23T17:20:10.308Z,77.19
2022-10-23T17:22:55.751Z,76.91
2022-10-23T17:25:41.219Z,77.10
2022-10-23T17:28:28.804Z,77.02
2022-10-23T17:31:16.061Z,77.20
2022-10-23T17:34:04.440Z,77.25
2022-10-23T17:36:55.154Z,76.95
2022-10-23T17:39:44.205Z,76.88
2022-10-23T17:42:30.150Z,77.27
2022-10-23T17:45:15.601Z,77.43
2022-10-23T17:48:01.069Z,76.97
2022-10-23T17:50:46.748Z,76.97
2022-10-23T17:53:32.373Z,77.65
2022-10-23T17:56:24.006Z,77.62
2022-10-23T17:59:11.421Z,77.08
2022-10-23T18:01:59.491Z,77.04
2022-10-23T18:04:49.360Z,77.30
2022-10-23T18:07:40.609Z,77.21
2022-10-23T18:10:26.860Z,77.33
2022-10-23T18:13:12.363Z,77.36
2022-10-23T18:15:58.508Z,77.41
2022-10-23T18:18:44.020Z,77.52
2022-10-23T18:21:30.278Z,77.39
2022-10-23T18:24:18.979Z,77.93
2022-10-23T18:27:08.970Z,77.83
2022-10-23T18:29:57.691Z,77.50
2022-10-23T18:32:43.590Z,77.34
2022-10-23T18:35:29.305Z,77.78
2022-10-23T18:38:14.569Z,78.09
2022-10-23T18:41:02.262Z,77.50
2022-10-23T18:43:47.681Z,77.70
2022-10-23T18:46:33.951Z,77.82
2022-10-23T18:49:30.789Z,77.74
2022-10-23T18:52:16.622Z,77.95
2022-10-23T18:55:02.099Z,77.93
2022-10-23T18:57:48.049Z,77.96
2022-10-23T19:00:37.560Z,77.67
2022-10-23T19:03:23.213Z,77.80
2022-10-23T19:06:11.702Z,77.67
2022-10-23T19:09:00.910Z,78.22
2022-10-23T19:11:47.509Z,77.50
2022-10-23T19:14:32.965Z,77.89
2022-10-23T19:17:26.790Z,78.20
2022-10-23T19:20:17.459Z,78.24
2022-10-23T19:23:06.095Z,78.06
2022-10-23T19:25:53.656Z,77.90
2022-10-23T19:28:39.170Z,78.10
2022-10-23T19:31:26.166Z,77.93
2022-10-23T19:34:12.266Z,77.78
2022-10-23T19:36:58.018Z,77.61
2022-10-23T19:39:43.371Z,77.91
2022-10-23T19:42:29.277Z,77.84
2022-10-23T19:45:14.641Z,77.85
2022-10-23T19:48:00.390Z,78.00
2022-10-23T19:50:45.908Z,77.33
2022-10-23T19:53:31.433Z,77.81
2022-10-23T19:56:21.631Z,77.84
2022-10-23T19:59:08.661Z,77.79
2022-10-23T20:01:56.523Z,77.67
2022-10-23T20:04:42.510Z,77.61
2022-10-23T20:07:28.897Z,77.46
2022-10-23T20:10:14.354Z,77.69
2022-10-23T20:13:18.274Z,77.67
2022-10-23T20:16:05.415Z,77.22
2022-10-23T20:18:50.923Z,77.58
2022-10-23T20:21:42.652Z,77.56
2022-10-23T20:24:35.048Z,77.69
2022-10-23T20:27:20.529Z,77.53
2022-10-23T20:30:06.016Z,77.99
2022-10-23T20:32:52.550Z,77.93
2022-10-23T20:35:37.990Z,77.61
2022-10-23T20:38:27.069Z,77.75
2022-10-23T20:41:15.958Z,77.64
2022-10-23T20:44:02.353Z,77.42
2022-10-23T20:46:47.955Z,78.11
2022-10-23T20:49:34.518Z,78.11
2022-10-23T20:52:27.886Z,77.96
2022-10-23T20:55:13.452Z,77.80
2022-10-23T20:57:58.826Z,77.92
2022-10-23T21:00:44.489Z,77.89
2022-10-23T21:03:32.466Z,77.60
2022-10-23T21:06:27.143Z,78.34
2022-10-23T21:09:14.773Z,77.59
2022-10-23T21:12:00.559Z,77.74
2022-10-23T21:14:45.958Z,78.00
2022-10-23T21:20:22.323Z,78.18
2022-10-23T21:23:07.812Z,77.91
2022-10-23T21:25:56.987Z,77.77
2022-10-23T21:28:50.766Z,77.95
2022-10-23T21:31:46.460Z,78.01
2022-10-23T21:34:37.145Z,77.62
2022-10-23T21:37:22.858Z,78.07
2022-10-23T21:40:08.378Z,77.70
2022-10-23T21:42:55.527Z,77.82
2022-10-23T21:45:40.945Z,77.62
2022-10-23T21:48:26.409Z,77.84
2022-10-23T21:51:18.029Z,77.61
2022-10-23T21:54:03.353Z,77.73
2022-10-23T21:56:52.816Z,78.26
2022-10-23T21:59:41.138Z,78.25
2022-10-23T22:02:26.562Z,77.97
2022-10-23T22:05:12.109Z,77.68
2022-10-23T22:07:57.793Z,78.03
2022-10-23T22:10:43.434Z,78.22
2022-10-23T22:13:28.903Z,77.86
2022-10-23T22:16:15.003Z,77.90
2022-10-23T22:19:01.048Z,78.40
2022-10-23T22:21:48.497Z,78.24
2022-10-23T22:24:34.907Z,78.13
2022-10-23T22:27:20.572Z,78.43
2022-10-23T22:30:06.092Z,78.45
2022-10-23T22:32:54.523Z,78.02
2022-10-23T22:35:42.288Z,78.39
2022-10-23T22:38:27.760Z,78.24
2022-10-23T22:41:14.257Z,78.60
2022-10-23T22:43:59.707Z,78.47
2022-10-23T22:46:46.723Z,78.53
2022-10-23T22:49:33.531Z,77.95
2022-10-23T22:52:18.966Z,78.57
2022-10-23T22:55:06.308Z,78.63
2022-10-23T22:57:51.985Z,78.47
2022-10-23T23:00:41.272Z,78.28
2022-10-23T23:03:29.167Z,78.35
2022-10-23T23:06:14.544Z,78.86
2022-10-23T23:09:01.155Z,78.31
2022-10-23T23:11:51.534Z,78.16
2022-10-23T23:14:38.721Z,78.48
2022-10-23T23:17:25.206Z,78.62
2022-10-23T23:20:10.738Z,78.01
2022-10-23T23:22:58.266Z,78.12
2022-10-23T23:25:43.722Z,78.12
2022-10-23T23:28:33.716Z,78.53
2022-10-23T23:31:25.904Z,78.00
2022-10-23T23:34:13.038Z,78.00
2022-10-23T23:36:59.672Z,78.24
2022-10-23T23:39:45.328Z,77.95
2022-10-23T23:42:30.973Z,78.29
2022-10-23T23:45:16.304Z,77.92
2022-10-23T23:48:02.011Z,77.95
2022-10-23T23:50:47.267Z,78.21
2022-10-23T23:53:32.814Z,77.55
2022-10-23T23:56:18.262Z,77.85
2022-10-23T23:59:04.093Z,78.12
